Terminal Aerodrome Forecast
Issued by NWS Bismarck, ND

Home | Current Version | Previous Version | Text Only | Print | Product List | Glossary Off
Versions: 1 2 3 4 5 6 7 8 9 10 11 12

827
FTUS43 KBIS 190526
TAFISN
TAF
KISN 190526Z 1906/2006 15005KT P6SM SKC
     FM191400 24010KT P6SM FEW120 FEW250
     FM191800 30019G27KT P6SM FEW100 FEW250
     FM200000 33016G24KT P6SM FEW110 FEW250
     FM200400 35010KT P6SM FEW120 FEW250=

USA.gov is the U.S. government's official web portal to all federal, state and local government web resources and services.